Home > Products > Valid Products > MTR

000
SAUS44 KMEG 100559
MTRTUP
METAR KTUP 100553Z AUTO 00000KT 10SM CLR M03/M11 A3017 RMK AO2
SLP217 T10281111 10017 21028 400561028 51002





000
SAUS44 KMEG 100457
MTRTUP
METAR KTUP 100453Z AUTO 27003KT 10SM CLR M02/M11 A3016 RMK AO2
SLP216 T10221111





000
SAUS44 KMEG 100457
MTRTUP
METAR KTUP 100453Z AUTO 27003KT 10SM CLR M02/M11 A3016 RMK AO2
SLP216 T10221111





000
SAUS44 KMEG 100357
MTRTUP
METAR KTUP 100353Z AUTO 00000KT 10SM CLR M02/M11 A3017 RMK AO2
SLP217 T10221111





000
SAUS44 KMEG 100259
MTRTUP
METAR KTUP 100253Z 30003KT 10SM CLR M02/M11 A3016 RMK AO2 SLP215
T10171111 51028





000
SAUS44 KMEG 100158
MTRTUP
METAR KTUP 100153Z 32007KT 10SM CLR M01/M12 A3014 RMK AO2 SLP209
T10111117





000
SAUS44 KMEG 100057
MTRTUP
METAR KTUP 100053Z 32010KT 10SM CLR 01/M12 A3011 RMK AO2 SLP199
T00061122





000
SAUS44 KMEG 100057
MTRTUP
METAR KTUP 100053Z 32010KT 10SM CLR 01/M12 A3011 RMK AO2 SLP199
T00061122





000
SAUS44 KMEG 092357
MTRTUP
METAR KTUP 092353Z 30008G17KT 10SM FEW065 02/M12 A3008 RMK AO2
SLP186 T00171122 10056 20017 51026





000
SAUS44 KMEG 092357
MTRTUP
METAR KTUP 092353Z 30008G17KT 10SM FEW065 02/M12 A3008 RMK AO2
SLP186 T00171122 10056 20017 51026





000
SAUS44 KMEG 092300
MTRTUP
METAR KTUP 092253Z 31014G19KT 10SM CLR 03/M12 A3005 RMK AO2 SLP176
T00331122





000
SAUS44 KMEG 092300
MTRTUP
METAR KTUP 092253Z 31014G19KT 10SM CLR 03/M12 A3005 RMK AO2 SLP176
T00331122





000
SAUS44 KMEG 092157
MTRTUP
METAR KTUP 092153Z 30015G22KT 10SM CLR 04/M12 A3003 RMK AO2 SLP169
T00441122





000
SAUS44 KMEG 092058
MTRTUP
METAR KTUP 092053Z 27012G22KT 250V310 10SM SCT065 05/M12 A3000 RMK
AO2 SLP159 T00501122 53005





000
SAUS44 KMEG 091957
MTRTUP
METAR KTUP 091953Z 29015G24KT 10SM FEW070 04/M12 A2998 RMK AO2
SLP153 T00441122





000
SAUS44 KMEG 091857
MTRTUP
METAR KTUP 091853Z 27014G22KT 10SM BKN065 03/M12 A2997 RMK AO2
SLP151 T00331122





000
SAUS44 KMEG 091857
MTRTUP
METAR KTUP 091853Z 27014G22KT 10SM BKN065 03/M12 A2997 RMK AO2
SLP151 T00331122





000
SAUS44 KMEG 091758
MTRTUP
METAR KTUP 091753Z 29014G24KT 240V320 10SM SCT065 04/M12 A2998 RMK
AO2 SLP154 T00441122 10044 20011 58002





000
SAUS44 KMEG 091700
MTRTUP
METAR KTUP 091653Z 27008G17KT 10SM SCT055 03/M12 A2999 RMK AO2
SLP156 T00331117





000
SAUS44 KMEG 091700
MTRTUP
METAR KTUP 091653Z 27008G17KT 10SM SCT055 03/M12 A2999 RMK AO2
SLP156 T00331117





000
SAUS44 KMEG 091557
MTRTUP
METAR KTUP 091553Z 29013G21KT 10SM SCT049 02/M11 A2999 RMK AO2
SLP156 T00221111





000
SAUS44 KMEG 091457
MTRTUP
METAR KTUP 091453Z 26012G23KT 230V300 10SM OVC050 02/M10 A2999 RMK
AO2 SLP156 T00171100 51012





000
SAUS44 KMEG 091457
MTRTUP
METAR KTUP 091453Z 26012G23KT 230V300 10SM OVC050 02/M10 A2999 RMK
AO2 SLP156 T00171100 51012





000
SAUS44 KMEG 091357
MTRTUP
METAR KTUP 091353Z 27005KT 10SM FEW043 OVC050 01/M09 A2998 RMK AO2
SLP152 T00111089





000
SAUS44 KMEG 091257
MTRTUP
METAR KTUP 091253Z 28004KT 10SM OVC049 01/M09 A2997 RMK AO2 SLP149
T00111094





000
SAUS44 KMEG 091257
MTRTUP
METAR KTUP 091253Z 28004KT 10SM OVC049 01/M09 A2997 RMK AO2 SLP149
T00111094





000
SAUS44 KMEG 091157
MTRTUP
METAR KTUP 091153Z 28007KT 240V310 10SM OVC055 01/M09 A2995 RMK AO2
SLP144 T00111089 10028 20011 53005





000
SAUS44 KMEG 091157
MTRTUP
METAR KTUP 091153Z 28007KT 240V310 10SM OVC055 01/M09 A2995 RMK AO2
SLP144 T00111089 10028 20011 53005





000
SAUS44 KMEG 091057
MTRTUP
METAR KTUP 091053Z AUTO 30009G15KT 10SM BKN048 OVC055 02/M08 A2994
RMK AO2 SLP140 T00171083





000
SAUS44 KMEG 091057
MTRTUP
METAR KTUP 091053Z AUTO 30009G15KT 10SM BKN048 OVC055 02/M08 A2994
RMK AO2 SLP140 T00171083





000
SAUS44 KMEG 090955
MTRTUP
METAR KTUP 090953Z AUTO 28008G17KT 10SM OVC055 02/M09 A2992 RMK AO2
SLP134 T00171089





000
SAUS44 KMEG 090900
MTRTUP
METAR KTUP 090853Z AUTO VRB05KT 10SM OVC055 02/M08 A2994 RMK AO2
SLP138 T00221083 56011





000
SAUS44 KMEG 090900
MTRTUP
METAR KTUP 090853Z AUTO VRB05KT 10SM OVC055 02/M08 A2994 RMK AO2
SLP138 T00221083 56011





000
SAUS44 KMEG 090754
MTRTUP
METAR KTUP 090753Z AUTO VRB06KT 10SM OVC055 02/M08 A2995 RMK AO2
SLP141 T00221083





000
SAUS44 KMEG 090700 COR
MTRTUP
METAR KTUP 090653Z AUTO 28007G15KT 250V320 10SM OVC060 02/M09 A2995
RMK AO2 SLP142 T00221089





000
SAUS44 KMEG 090700 COR
MTRTUP
METAR KTUP 090653Z AUTO 28007G15KT 250V320 10SM OVC060 02/M09 A2995
RMK AO2 SLP142 T00221089





000
SAUS44 KMEG 090557
MTRTUP
METAR KTUP 090553Z AUTO 27008KT 10SM FEW060 02/M08 A2997 RMK AO2
SLP148 T00221083 10061 20022 400940022 58007





000
SAUS44 KMEG 090455
MTRTUP
METAR KTUP 090453Z AUTO 29011G20KT 10SM OVC080 03/M09 A2999 RMK AO2
SLP154 T00281089





000
SAUS44 KMEG 090357
MTRTUP
METAR KTUP 090353Z 31012G20KT 10SM BKN055 OVC070 03/M09 A2999 RMK
AO2 SLP156 T00331089





000
SAUS44 KMEG 090300
MTRTUP
METAR KTUP 090253Z 29007G16KT 10SM FEW050 OVC070 04/M07 A2999 RMK
AO2 SLP155 T00391072 50011





000
SAUS44 KMEG 090300
MTRTUP
METAR KTUP 090253Z 29007G16KT 10SM FEW050 OVC070 04/M07 A2999 RMK
AO2 SLP155 T00391072 50011





000
SAUS44 KMEG 090158
MTRTUP
METAR KTUP 090153Z 30008G22KT 10SM FEW043 BKN065 OVC075 04/M06 A2999
RMK AO2 PK WND 29026/0123 SLP155 T00441061





000
SAUS44 KMEG 090100
MTRTUP
METAR KTUP 090053Z 29007G19KT 240V320 10SM OVC070 06/M08 A2996 RMK
AO2 SLP146 T00561078





000
SAUS44 KMEG 090100
MTRTUP
METAR KTUP 090053Z 29007G19KT 240V320 10SM OVC070 06/M08 A2996 RMK
AO2 SLP146 T00561078





000
SAUS44 KMEG 082358
MTRTUP
METAR KTUP 082353Z 24006KT 10SM OVC075 06/M07 A2996 RMK AO2 SLP144
T00561067 10089 20056 51007





000
SAUS44 KMEG 082358
MTRTUP
METAR KTUP 082353Z 24006KT 10SM OVC075 06/M07 A2996 RMK AO2 SLP144
T00561067 10089 20056 51007





000
SAUS44 KMEG 082300
MTRTUP
METAR KTUP 082253Z 24009G17KT 10SM OVC080 06/M07 A2995 RMK AO2
SLP143 T00611067





000
SAUS44 KMEG 082157
MTRTUP
METAR KTUP 082153Z 26010G19KT 220V290 10SM FEW055 OVC080 06/M06
A2995 RMK AO2 SLP143 T00611061





000
SAUS44 KMEG 082057
MTRTUP
METAR KTUP 082053Z 28011G17KT 10SM OVC065 07/M07 A2994 RMK AO2 PK
WND 31026/1955 SLP137 T00671067 53007





000
SAUS44 KMEG 082000 COR
MTRTUP
METAR KTUP 081953Z 27013G22KT 240V320 10SM FEW060 OVC070 07/M07
A2992 RMK AO2 PK WND 31026/1938 SLP132 T00721067





000
SAUS44 KMEG 081900
MTRTUP
METAR KTUP 081853Z 28009G22KT 250V310 10SM OVC070 08/M07 A2991 RMK
AO2 SLP127 T00831067





000
SAUS44 KMEG 081900
MTRTUP
METAR KTUP 081853Z 28009G22KT 250V310 10SM OVC070 08/M07 A2991 RMK
AO2 SLP127 T00831067





000
SAUS44 KMEG 081800
MTRTUP
METAR KTUP 081753Z 29012G18KT 10SM BKN060 OVC075 08/M06 A2991 RMK
AO2 SLP129 T00831061 10094 20061 58009





000
SAUS44 KMEG 081658 COR
MTRTUP
METAR KTUP 081653Z AUTO 27008G19KT 240V300 10SM OVC070 09/M07 A2993
RMK AO2 SLP133 T00891067 $





000
SAUS44 KMEG 081557
MTRTUP
METAR KTUP 081553Z AUTO 28012G18KT 10SM FEW060 09/M06 A2994 RMK AO2
SLP137 T00891061 $





000
SAUS44 KMEG 081458 COR
MTRTUP
METAR KTUP 081453Z AUTO 30007KT CLR 08/M06 A2994 RMK AO2 SLP139
T00781056 53012





000
SAUS44 KMEG 081458 COR
MTRTUP
METAR KTUP 081453Z AUTO 30007KT CLR 08/M06 A2994 RMK AO2 SLP139
T00781056 53012





000
SAUS44 KMEG 081400 COR
MTRTUP
METAR KTUP 081353Z AUTO 27008KT CLR 07/M07 A2993 RMK AO2 SLP134
T00721067 $





000
SAUS44 KMEG 081400 COR
MTRTUP
METAR KTUP 081353Z AUTO 27008KT CLR 07/M07 A2993 RMK AO2 SLP134
T00721067 $





000
SAUS44 KMEG 081257
MTRTUP
METAR KTUP 081253Z AUTO 29008KT CLR 07/M06 A2991 RMK AO2 SLP127
T00671061 $





000
SAUS44 KMEG 081257
MTRTUP
METAR KTUP 081253Z AUTO 29008KT CLR 07/M06 A2991 RMK AO2 SLP127
T00671061 $





000
SAUS44 KMEG 081157
MTRTUP
METAR KTUP 081153Z AUTO 28007KT 240V300 FEW110 08/M04 A2991 RMK AO2
SLP126 T00781039 10089 20072 56004 $





000
SAUS44 KMEG 081157
MTRTUP
METAR KTUP 081153Z AUTO 28007KT 240V300 FEW110 08/M04 A2991 RMK AO2
SLP126 T00781039 10089 20072 56004 $





000
SAUS44 KMEG 081057
MTRTUP
METAR KTUP 081053Z AUTO 28007KT SCT080 BKN095 OVC120 08/M02 A2991
RMK AO2 SLP126 T00831017 $





000
SAUS44 KMEG 081057
MTRTUP
METAR KTUP 081053Z AUTO 28007KT SCT080 BKN095 OVC120 08/M02 A2991
RMK AO2 SLP126 T00831017 $





000
SAUS44 KMEG 080958
MTRTUP
METAR KTUP 080953Z AUTO 23005KT OVC085 07/M01 A2991 RMK AO2 SLP127
T00721006 $





000
SAUS44 KMEG 080857
MTRTUP
METAR KTUP 080853Z AUTO 24004KT BKN070 08/M01 A2992 RMK AO2 SLP129
T00781011 56017 $





000
SAUS44 KMEG 080857
MTRTUP
METAR KTUP 080853Z AUTO 24004KT BKN070 08/M01 A2992 RMK AO2 SLP129
T00781011 56017 $





000
SAUS44 KMEG 080757
MTRTUP
METAR KTUP 080753Z AUTO 22003KT FEW070 08/M01 A2993 RMK AO2 SLP133
T00781011 $





000
SAUS44 KMEG 080657
MTRTUP
METAR KTUP 080653Z AUTO 23006KT CLR 08/M02 A2994 RMK AO2 SLP136
T00831017 $





000
SAUS44 KMEG 080657
MTRTUP
METAR KTUP 080653Z AUTO 23006KT CLR 08/M02 A2994 RMK AO2 SLP136
T00831017 $





000
SAUS44 KMEG 080601 COR
MTRTUP
METAR KTUP 080553Z AUTO 22007KT CLR 08/M02 A2997 RMK AO2 SLP147
T00831017 10111 20061 401501028 56017 $





000
SAUS44 KMEG 080457
MTRTUP
METAR KTUP 080453Z AUTO 22008KT CLR 09/M02 A2999 RMK AO2 SLP153
T00891017 $





000
SAUS44 KMEG 080457
MTRTUP
METAR KTUP 080453Z AUTO 22008KT CLR 09/M02 A2999 RMK AO2 SLP153
T00891017 $





000
SAUS44 KMEG 080358 COR
MTRTUP
METAR KTUP 080353Z 18006KT 10SM CLR 08/M02 A3000 RMK AO2 SLP158
T00781017 $





000
SAUS44 KMEG 080258 COR
MTRTUP
METAR KTUP 080253Z 20004KT 10SM CLR 08/M03 A3002 RMK AO2 SLP166
T00781028 56006 $





000
SAUS44 KMEG 080258 COR
MTRTUP
METAR KTUP 080253Z 20004KT 10SM CLR 08/M03 A3002 RMK AO2 SLP166
T00781028 56006 $





000
SAUS44 KMEG 080159 COR
MTRTUP
METAR KTUP 080153Z AUTO 21005KT 10SM CLR 09/M03 A3003 RMK AO2 SLP170
T00941033 $





000
SAUS44 KMEG 080101 COR
MTRTUP
METAR KTUP 080053Z AUTO 19005KT 10SM CLR 11/M04 A3002 RMK AO2 SLP167
T01061039 $





000
SAUS44 KMEG 080101 COR
MTRTUP
METAR KTUP 080053Z AUTO 19005KT 10SM CLR 11/M04 A3002 RMK AO2 SLP167
T01061039 $





000
SAUS44 KMEG 072355
MTRTUP
METAR KTUP 072353Z AUTO 21005KT 10SM CLR 11/M05 A3004 RMK AO2 SLP173
T01111050 10150 20111 56010 $





000
SAUS44 KMEG 072257
MTRTUP
METAR KTUP 072253Z AUTO 20008KT 10SM CLR 13/M06 A3004 RMK AO2 SLP172
T01331056 $





000
SAUS44 KMEG 072257
MTRTUP
METAR KTUP 072253Z AUTO 20008KT 10SM CLR 13/M06 A3004 RMK AO2 SLP172
T01331056 $





000
SAUS44 KMEG 072157
MTRTUP
METAR KTUP 072153Z AUTO 21009KT 10SM CLR 14/M07 A3005 RMK AO2 SLP175
T01391067 $





000
SAUS44 KMEG 072057
MTRTUP
METAR KTUP 072053Z AUTO 21006KT 10SM CLR 14/M07 A3007 RMK AO2 SLP182
T01391072 56038 $





000
SAUS44 KMEG 072057
MTRTUP
METAR KTUP 072053Z AUTO 21006KT 10SM CLR 14/M07 A3007 RMK AO2 SLP182
T01391072 56038 $





000
SAUS44 KMEG 072000 COR
MTRTUP
METAR KTUP 071953Z AUTO 20008KT 10SM CLR 14/M08 A3010 RMK AO2 SLP192
T01391078 $





000
SAUS44 KMEG 071858 COR
MTRTUP
METAR KTUP 071853Z AUTO 19006KT 10SM CLR 14/M06 A3013 RMK AO2 SLP203
T01391056 $





000
SAUS44 KMEG 071757
MTRTUP
METAR KTUP 071753Z AUTO 17009KT 10SM CLR 13/M06 A3018 RMK AO2 SLP221
I6000 T01281061 10133 21028 58028 $





000
SAUS44 KMEG 071757
MTRTUP
METAR KTUP 071753Z AUTO 17009KT 10SM CLR 13/M06 A3018 RMK AO2 SLP221
I6000 T01281061 10133 21028 58028 $





000
SAUS44 KMEG 071657
MTRTUP
METAR KTUP 071653Z AUTO 20008KT 10SM CLR 12/M05 A3022 RMK AO2 SLP234
T01171050 $





000
SAUS44 KMEG 071657
MTRTUP
METAR KTUP 071653Z AUTO 20008KT 10SM CLR 12/M05 A3022 RMK AO2 SLP234
T01171050 $





000
SAUS44 KMEG 071559
MTRTUP
METAR KTUP 071553Z AUTO 19006KT CLR 09/M04 A3024 RMK AO2 SLP241
T00941044 $





000
SAUS44 KMEG 071457
MTRTUP
METAR KTUP 071453Z AUTO 22003KT CLR 06/M02 A3027 RMK AO2 SLP250
I3000 T00561017 50007 $





000
SAUS44 KMEG 071357
MTRTUP
METAR KTUP 071353Z AUTO 00000KT CLR 00/M02 A3027 RMK AO2 SLP253
T00001017 $





000
SAUS44 KMEG 071257
MTRTUP
METAR KTUP 071253Z AUTO 00000KT 10SM CLR M03/M04 A3026 RMK AO2
SLP248 I1000 T10281044 $





000
SAUS44 KMEG 071257
MTRTUP
METAR KTUP 071253Z AUTO 00000KT 10SM CLR M03/M04 A3026 RMK AO2
SLP248 I1000 T10281044 $





000
SAUS44 KMEG 071157
MTRTUP
METAR KTUP 071153Z AUTO 00000KT 10SM CLR M02/M04 A3025 RMK AO2
SLP244 I1001 I6001 T10221044 10000 21022 56005 $





000
SAUS44 KMEG 071057
MTRTUP
METAR KTUP 071053Z AUTO 00000KT 10SM CLR M02/M05 A3025 RMK AO2
SLP244 T10221050 $





000
SAUS44 KMEG 070958 COR
MTRTUP
METAR KTUP 070953Z AUTO 00000KT 10SM CLR M01/M04 A3026 RMK AO2
SLP247 T10111044 $





000
SAUS44 KMEG 070854
MTRTUP
METAR KTUP 070853Z AUTO 00000KT 10SM CLR M01/M03 A3026 RMK AO2
SLP248 T10111033 56010 $





000
SAUS44 KMEG 070854
MTRTUP
METAR KTUP 070853Z AUTO 00000KT 10SM CLR M01/M03 A3026 RMK AO2
SLP248 T10111033 56010 $





000
SAUS44 KMEG 070755
MTRTUP
METAR KTUP 070753Z AUTO 00000KT 10SM CLR M01/M04 A3027 RMK AO2
SLP249 T10061039 $





000
SAUS44 KMEG 070654
MTRTUP
METAR KTUP 070653Z AUTO 00000KT 10SM CLR 00/M04 A3029 RMK AO2 SLP257
T00001039 $





000
SAUS44 KMEG 070654
MTRTUP
METAR KTUP 070653Z AUTO 00000KT 10SM CLR 00/M04 A3029 RMK AO2 SLP257
T00001039 $





    US Dept of Commerce
    National Oceanic and Atmospheric Administration
    National Weather Service
    1325 East West Highway
    Silver Spring, MD 20910
    Page Author: NWS Internet Services Team
Disclaimer
Information Quality
Credits
Glossary
Privacy Policy
Freedom of Information Act (FOIA)
About Us
Career Opportunities